Time;durP1;ratioP1;P1;durP2;ratioP2;P2;SDS_P1;SDS_P2;PMS_P1;PMS_P2;Temp;Humidity;BMP_temperature;BMP_pressure;BME280_temperature;BME280_humidity;BME280_pressure;Samples;Min_cycle;Max_cycle;Signal;HPM_P1;HPM_P2
2022/10/03 00:02:12;;;;;;;21.23;2.58;;;10.60;99.90;;;;;;4973146;28;20080;-93
2022/10/03 00:05:00;;;;;;;25.15;2.92;;;10.60;99.90;;;;;;4973677;28;20462;-93
2022/10/03 00:08:02;;;;;;;20.38;2.65;;;10.60;99.90;;;;;;4973157;28;20519;-93
2022/10/03 00:10:30;;;;;;;13.18;2.17;;;10.80;99.90;;;;;;4973148;28;20042;-93
2022/10/03 00:13:13;;;;;;;23.75;2.75;;;10.70;99.90;;;;;;4972934;28;20046;-93
2022/10/03 00:15:52;;;;;;;20.00;2.65;;;10.80;99.90;;;;;;4973121;28;20391;-94
2022/10/03 00:18:47;;;;;;;19.52;2.85;;;10.90;99.90;;;;;;4973400;28;20038;-93
2022/10/03 00:21:19;;;;;;;26.85;2.67;;;11.00;99.90;;;;;;4972127;28;20140;-92
2022/10/03 00:24:24;;;;;;;22.05;2.45;;;11.00;99.90;;;;;;4973811;28;20050;-93
2022/10/03 00:27:04;;;;;;;19.70;3.15;;;10.60;99.90;;;;;;4957066;28;20124;-93
2022/10/03 00:29:35;;;;;;;25.92;2.50;;;11.20;99.90;;;;;;4973532;28;20058;-92
2022/10/03 00:32:16;;;;;;;20.63;2.47;;;11.30;99.90;;;;;;4972463;28;20053;-92
2022/10/03 00:35:17;;;;;;;22.02;2.50;;;11.20;99.90;;;;;;4972560;28;20468;-93
2022/10/03 00:37:58;;;;;;;18.77;2.58;;;11.30;99.90;;;;;;4973411;28;20053;-92
2022/10/03 00:40:35;;;;;;;21.83;3.47;;;11.40;99.90;;;;;;4956517;28;20580;-93
2022/10/03 00:43:23;;;;;;;21.48;2.45;;;11.40;99.90;;;;;;4972805;28;20050;-93
2022/10/03 00:46:04;;;;;;;19.15;2.25;;;11.50;99.90;;;;;;4972808;28;20046;-93
2022/10/03 00:48:50;;;;;;;18.27;2.67;;;11.40;99.90;;;;;;4957373;28;20410;-93
2022/10/03 00:51:55;;;;;;;17.65;2.00;;;11.40;99.90;;;;;;4953290;28;20403;-93
2022/10/03 00:54:51;;;;;;;23.30;2.20;;;11.40;99.90;;;;;;4937625;28;20585;-93
2022/10/03 00:57:20;;;;;;;19.65;2.00;;;11.50;99.90;;;;;;4950991;28;20205;-93
2022/10/03 01:00:00;;;;;;;19.35;2.92;;;11.60;99.90;;;;;;4945208;28;20066;-93
2022/10/03 01:02:31;;;;;;;21.00;3.03;;;11.60;99.90;;;;;;4933964;29;20609;-93
2022/10/03 01:04:58;;;;;;;22.30;2.38;;;11.50;99.90;;;;;;4933308;29;20039;-92
2022/10/03 01:07:34;;;;;;;16.25;2.40;;;11.60;99.90;;;;;;4933778;29;20047;-93
2022/10/03 01:10:08;;;;;;;15.25;1.83;;;11.70;99.90;;;;;;4933618;29;20047;-93
2022/10/03 01:12:48;;;;;;;19.80;2.67;;;11.60;99.90;;;;;;4934156;29;20053;-93
2022/10/03 01:15:33;;;;;;;18.58;2.83;;;11.60;99.90;;;;;;4933755;29;20043;-94
2022/10/03 01:18:11;;;;;;;16.52;2.80;;;11.70;99.90;;;;;;4933566;29;20090;-93
2022/10/03 01:20:46;;;;;;;15.13;2.00;;;11.60;99.90;;;;;;4933401;29;20511;-92
2022/10/03 01:23:30;;;;;;;19.90;1.83;;;11.60;99.90;;;;;;4918067;29;20055;-93
2022/10/03 01:26:14;;;;;;;22.55;2.33;;;11.70;99.90;;;;;;4918154;29;20122;-93
2022/10/03 01:31:45;;;;;;;15.82;2.13;;;11.70;99.90;;;;;;4933249;29;20055;-92
2022/10/03 01:34:24;;;;;;;15.65;1.65;;;11.60;99.90;;;;;;4917761;29;20058;-92
2022/10/03 01:37:04;;;;;;;17.95;2.00;;;11.60;99.90;;;;;;4917107;29;20047;-93
2022/10/03 01:39:35;;;;;;;17.77;2.17;;;11.70;99.90;;;;;;4917762;29;20043;-93
2022/10/03 01:42:16;;;;;;;15.10;1.92;;;11.60;99.90;;;;;;4918092;29;20047;-93
2022/10/03 01:44:42;;;;;;;11.73;2.28;;;11.50;99.90;;;;;;4917435;29;20047;-94
2022/10/03 01:47:22;;;;;;;14.88;2.28;;;11.40;99.90;;;;;;4933854;29;20059;-93
2022/10/03 01:50:16;;;;;;;15.00;2.15;;;11.40;99.90;;;;;;4917318;29;20524;-93
2022/10/03 01:52:49;;;;;;;15.52;2.42;;;11.30;99.90;;;;;;4917018;29;20087;-92
2022/10/03 01:55:21;;;;;;;22.45;2.72;;;11.30;99.90;;;;;;4933754;29;20129;-93
2022/10/03 01:58:00;;;;;;;16.15;2.03;;;11.30;99.90;;;;;;4937181;28;20053;-93
2022/10/03 02:00:34;;;;;;;17.85;1.95;;;11.30;99.90;;;;;;4951891;28;20082;-92
2022/10/03 02:03:20;;;;;;;16.40;2.40;;;11.30;99.90;;;;;;4952190;28;20051;-92
2022/10/03 02:06:02;;;;;;;15.27;2.25;;;11.40;99.90;;;;;;4951375;28;20555;-93
2022/10/03 02:08:47;;;;;;;20.50;2.67;;;11.20;99.90;;;;;;4954019;28;20050;-93
2022/10/03 02:11:28;;;;;;;14.00;2.13;;;11.40;99.90;;;;;;4956175;28;20047;-93
2022/10/03 02:14:16;;;;;;;19.70;2.35;;;11.30;99.90;;;;;;4955769;28;20487;-94
2022/10/03 02:16:57;;;;;;;13.07;1.92;;;11.30;99.90;;;;;;4956120;28;20051;-93
2022/10/03 02:19:47;;;;;;;17.73;1.95;;;11.30;99.90;;;;;;4956243;28;20050;-93
2022/10/03 02:22:27;;;;;;;13.07;1.80;;;11.60;99.90;;;;;;4956499;28;20209;-93
2022/10/03 02:25:15;;;;;;;17.38;2.20;;;11.40;99.90;;;;;;4955498;28;20047;-92
2022/10/03 02:27:52;;;;;;;16.08;1.70;;;11.30;99.90;;;;;;4955313;28;20129;-93
2022/10/03 02:30:31;;;;;;;19.35;2.03;;;11.30;99.90;;;;;;4955529;28;20112;-93
2022/10/03 02:33:23;;;;;;;29.45;2.28;;;11.40;99.90;;;;;;4955892;28;20046;-93
2022/10/03 02:36:14;;;;;;;12.98;2.20;;;11.40;99.90;;;;;;4954701;28;20082;-93
2022/10/03 02:39:02;;;;;;;19.23;2.42;;;11.50;99.90;;;;;;4955548;28;20058;-93
2022/10/03 02:41:47;;;;;;;18.83;2.22;;;11.50;99.90;;;;;;4955294;28;20409;-93
2022/10/03 02:44:41;;;;;;;15.50;1.80;;;11.40;99.90;;;;;;4955641;28;20134;-93
2022/10/03 02:47:12;;;;;;;15.68;2.17;;;11.50;99.90;;;;;;4955194;28;20043;-92
2022/10/03 02:49:45;;;;;;;25.60;2.55;;;11.60;99.90;;;;;;4955799;28;20060;-92
2022/10/03 02:52:23;;;;;;;11.65;1.75;;;11.60;99.90;;;;;;4955609;28;20061;-92
2022/10/03 02:55:15;;;;;;;19.48;2.00;;;11.60;99.90;;;;;;4954261;28;20051;-92
2022/10/03 02:58:03;;;;;;;17.90;1.97;;;11.60;99.90;;;;;;4955982;28;20045;-93
2022/10/03 03:01:00;;;;;;;13.93;2.20;;;11.70;99.90;;;;;;4955369;28;20055;-92
2022/10/03 03:03:46;;;;;;;12.98;1.77;;;11.70;99.90;;;;;;4955682;28;20069;-92
2022/10/03 03:06:29;;;;;;;15.25;1.95;;;11.60;99.90;;;;;;4954767;28;20074;-92
2022/10/03 03:09:19;;;;;;;14.82;1.55;;;11.70;99.90;;;;;;4955149;28;20165;-92
2022/10/03 03:12:01;;;;;;;15.80;2.65;;;11.70;99.90;;;;;;4955357;28;20070;-92
2022/10/03 03:14:45;;;;;;;17.63;2.30;;;11.60;99.90;;;;;;4955605;28;20043;-95
2022/10/03 03:17:12;;;;;;;20.83;2.45;;;11.60;99.90;;;;;;4955031;28;20173;-93
2022/10/03 03:19:40;;;;;;;17.83;1.90;;;11.70;99.90;;;;;;4954240;28;20050;-92
2022/10/03 03:22:24;;;;;;;17.85;1.58;;;11.70;99.90;;;;;;4954960;28;20506;-92
2022/10/03 03:25:22;;;;;;;18.40;2.35;;;11.60;99.90;;;;;;4954713;28;20134;-92
2022/10/03 03:28:13;;;;;;;18.67;2.50;;;11.70;99.90;;;;;;4936575;29;20138;-93
2022/10/03 03:31:01;;;;;;;18.23;2.05;;;11.70;99.90;;;;;;4919839;29;20139;-93
2022/10/03 03:33:37;;;;;;;13.82;2.30;;;11.90;99.90;;;;;;4919530;29;20058;-93
2022/10/03 03:36:24;;;;;;;16.23;2.05;;;11.60;99.90;;;;;;4935003;29;20043;-93
2022/10/03 03:39:03;;;;;;;15.02;1.83;;;11.50;99.90;;;;;;4919326;29;20051;-94
2022/10/03 03:42:04;;;;;;;14.90;1.90;;;11.50;99.90;;;;;;4936976;28;20039;-92
2022/10/03 03:45:03;;;;;;;16.40;2.45;;;11.50;99.90;;;;;;4954607;28;20070;-92
2022/10/03 03:47:42;;;;;;;13.80;1.85;;;11.60;99.90;;;;;;4954009;28;20045;-91
2022/10/03 03:50:43;;;;;;;14.98;2.22;;;11.50;99.90;;;;;;4953853;28;20049;-93
2022/10/03 03:53:38;;;;;;;19.50;2.50;;;11.60;99.90;;;;;;4954251;28;20089;-93
2022/10/03 03:56:22;;;;;;;19.88;1.95;;;11.60;99.90;;;;;;4957626;28;20200;-93
2022/10/03 03:59:14;;;;;;;20.50;2.50;;;11.60;99.90;;;;;;4945481;28;20489;-93
2022/10/03 04:01:50;;;;;;;21.98;2.67;;;11.30;99.90;;;;;;4934736;29;20500;-93
2022/10/03 04:04:27;;;;;;;23.63;3.00;;;11.60;99.90;;;;;;4934936;29;20043;-93
2022/10/03 04:07:12;;;;;;;19.77;2.78;;;11.50;99.90;;;;;;4933677;29;20461;-93
2022/10/03 04:09:53;;;;;;;12.77;1.80;;;11.50;99.90;;;;;;4934994;29;20511;-93
2022/10/03 04:12:35;;;;;;;11.57;2.25;;;11.50;99.90;;;;;;4919904;29;20083;-92
2022/10/03 04:15:09;;;;;;;15.90;2.03;;;11.60;99.90;;;;;;4920408;29;20039;-93
2022/10/03 04:20:45;;;;;;;16.55;2.30;;;11.50;99.90;;;;;;4934926;29;20138;-93
2022/10/03 04:23:12;;;;;;;15.35;2.08;;;11.60;99.90;;;;;;4918850;29;20055;-93
2022/10/03 04:25:53;;;;;;;10.32;1.48;;;11.50;99.90;;;;;;4935066;29;20043;-91
2022/10/03 04:28:33;;;;;;;14.20;2.17;;;11.40;99.90;;;;;;4918486;29;20047;-92
2022/10/03 04:31:24;;;;;;;17.60;2.30;;;11.40;99.90;;;;;;4918107;29;20047;-93
2022/10/03 04:34:07;;;;;;;14.25;1.85;;;11.50;99.90;;;;;;4918092;29;20055;-92
2022/10/03 04:36:52;;;;;;;17.17;2.20;;;11.30;99.90;;;;;;4918291;29;20082;-92
2022/10/03 04:39:29;;;;;;;20.85;2.20;;;11.30;99.90;;;;;;4934460;29;20047;-92
2022/10/03 04:42:09;;;;;;;20.98;2.10;;;11.30;99.90;;;;;;4933727;29;20130;-92
2022/10/03 04:45:09;;;;;;;11.95;1.83;;;11.40;99.90;;;;;;4918387;29;20051;-93
2022/10/03 04:47:52;;;;;;;12.27;1.65;;;11.30;99.90;;;;;;4918560;29;20051;-93
2022/10/03 04:50:32;;;;;;;13.70;2.13;;;11.40;99.90;;;;;;4917894;29;20051;-93
2022/10/03 04:53:18;;;;;;;14.90;1.85;;;11.40;99.90;;;;;;4933926;29;20663;-92
2022/10/03 04:55:55;;;;;;;17.63;2.72;;;11.30;99.90;;;;;;4933699;29;20047;-93
2022/10/03 04:58:39;;;;;;;23.98;2.15;;;11.40;99.90;;;;;;4934405;29;20109;-92
2022/10/03 05:01:19;;;;;;;22.08;2.47;;;11.40;99.90;;;;;;4952478;28;20054;-92
2022/10/03 05:04:03;;;;;;;14.55;1.83;;;11.20;99.90;;;;;;4953081;28;20086;-92
2022/10/03 05:06:57;;;;;;;18.77;2.47;;;11.30;99.90;;;;;;4952978;28;20057;-92
2022/10/03 05:09:31;;;;;;;21.85;2.33;;;11.20;99.90;;;;;;4952805;28;20047;-92
2022/10/03 05:12:13;;;;;;;14.85;2.03;;;11.30;99.90;;;;;;4953036;28;20058;-92
2022/10/03 05:14:51;;;;;;;17.98;2.63;;;11.00;99.90;;;;;;4969369;28;20050;-93
2022/10/03 05:17:23;;;;;;;13.50;1.92;;;11.00;99.90;;;;;;4953447;28;20121;-91
2022/10/03 05:20:11;;;;;;;17.00;1.90;;;11.20;99.90;;;;;;4952447;28;20077;-92
2022/10/03 05:22:48;;;;;;;16.27;2.33;;;10.80;99.90;;;;;;4953193;28;20435;-92
2022/10/03 05:25:22;;;;;;;14.27;2.45;;;10.70;99.90;;;;;;4952940;28;20491;-92
2022/10/03 05:28:07;;;;;;;20.70;2.45;;;10.70;99.90;;;;;;4986073;28;20051;-93
2022/10/03 05:30:48;;;;;;;13.65;1.55;;;10.60;99.90;;;;;;4987769;28;20042;-92
2022/10/03 05:33:31;;;;;;;20.92;2.10;;;10.70;99.90;;;;;;4988325;28;20105;-93
2022/10/03 05:36:12;;;;;;;12.15;1.55;;;10.60;99.90;;;;;;4975953;28;20051;-92
2022/10/03 05:38:58;;;;;;;14.32;1.98;;;10.50;99.90;;;;;;4945330;28;20154;-92
2022/10/03 05:41:30;;;;;;;14.55;1.15;;;10.60;99.90;;;;;;4959947;28;20038;-90
2022/10/03 05:44:01;;;;;;;16.05;1.92;;;10.40;99.90;;;;;;4948985;28;20121;-90
2022/10/03 05:46:39;;;;;;;15.38;1.58;;;10.30;99.90;;;;;;4951923;28;20478;-90
2022/10/03 05:49:25;;;;;;;13.07;1.75;;;10.50;99.90;;;;;;4969749;28;20061;-89
2022/10/03 05:52:02;;;;;;;19.08;2.03;;;10.20;99.90;;;;;;4963459;28;20042;-90
2022/10/03 05:54:32;;;;;;;12.68;1.52;;;10.10;99.90;;;;;;4967809;28;20043;-90
2022/10/03 05:57:06;;;;;;;14.35;2.20;;;10.00;99.90;;;;;;4956960;28;20061;-89
2022/10/03 05:59:42;;;;;;;16.70;2.05;;;9.90;99.90;;;;;;4961474;28;20050;-89
2022/10/03 06:02:37;;;;;;;14.57;1.92;;;9.90;99.90;;;;;;4964916;28;20137;-90
2022/10/03 06:05:18;;;;;;;20.52;2.05;;;9.70;99.90;;;;;;4966171;28;20043;-90
2022/10/03 06:07:45;;;;;;;18.38;2.10;;;9.80;99.90;;;;;;4943281;28;20475;-89
2022/10/03 06:10:39;;;;;;;15.75;1.63;;;9.70;99.90;;;;;;4957815;28;20042;-90
2022/10/03 06:13:12;;;;;;;13.13;1.50;;;9.60;99.90;;;;;;4965853;28;20058;-90
2022/10/03 06:15:55;;;;;;;10.98;1.80;;;9.60;99.90;;;;;;4968100;28;20128;-90
2022/10/03 06:18:24;;;;;;;17.48;2.05;;;9.50;99.90;;;;;;4949816;28;20042;-90
2022/10/03 06:21:01;;;;;;;12.95;1.55;;;9.40;99.90;;;;;;4954707;28;20097;-90
2022/10/03 06:23:39;;;;;;;12.32;1.50;;;9.50;99.90;;;;;;4964655;28;20561;-91
2022/10/03 06:26:25;;;;;;;14.38;1.70;;;9.40;99.90;;;;;;4962833;28;20046;-90
2022/10/03 06:29:06;;;;;;;12.98;1.98;;;9.50;99.90;;;;;;4951725;28;20046;-91
2022/10/03 06:32:04;;;;;;;16.85;1.63;;;9.60;99.90;;;;;;4948525;28;21168;-90
2022/10/03 06:34:50;;;;;;;14.02;1.65;;;9.50;99.90;;;;;;4955491;28;20051;-90
2022/10/03 06:37:40;;;;;;;16.55;2.45;;;9.50;99.90;;;;;;4955894;28;20129;-90
2022/10/03 06:40:20;;;;;;;16.75;2.03;;;9.60;99.90;;;;;;4956051;28;20073;-95
2022/10/03 06:43:29;;;;;;;11.00;2.50;;;9.60;99.90;;;;;;4956458;28;20042;-90
2022/10/03 06:46:36;;;;;;;14.95;2.10;;;9.60;99.90;;;;;;4955779;28;20153;-90
2022/10/03 06:49:26;;;;;;;18.08;2.35;;;9.70;99.90;;;;;;4955430;28;20067;-91
2022/10/03 06:52:13;;;;;;;11.77;2.05;;;9.70;99.90;;;;;;4954930;28;20479;-91
2022/10/03 06:55:12;;;;;;;10.20;1.88;;;9.90;99.90;;;;;;4955634;28;20051;-90
2022/10/03 06:58:01;;;;;;;16.35;2.20;;;9.90;99.90;;;;;;4955843;28;20081;-90
2022/10/03 07:00:38;;;;;;;15.13;1.95;;;9.90;99.90;;;;;;4954917;28;20067;-89
2022/10/03 07:03:29;;;;;;;16.20;2.30;;;10.20;99.90;;;;;;4955333;28;20050;-90
2022/10/03 07:06:30;;;;;;;28.20;3.33;;;10.30;99.90;;;;;;4954579;28;20074;-89
2022/10/03 07:09:18;;;;;;;20.80;3.40;;;10.30;99.90;;;;;;4954771;28;20140;-90
2022/10/03 07:12:05;;;;;;;27.95;3.47;;;10.50;99.90;;;;;;4973567;23;20041;-90
2022/10/03 07:14:54;;;;;;;16.50;2.70;;;10.50;99.90;;;;;;4972657;28;20057;-93
2022/10/03 07:17:33;;;;;;;16.40;2.20;;;10.60;99.90;;;;;;4959469;28;20507;-93
2022/10/03 07:20:05;;;;;;;16.27;2.17;;;10.70;99.90;;;;;;4960755;28;20449;-94
2022/10/03 07:23:01;;;;;;;15.63;2.63;;;10.80;99.90;;;;;;4958316;28;20082;-93
2022/10/03 07:25:40;;;;;;;14.02;2.10;;;11.10;99.90;;;;;;4958383;28;20052;-93
2022/10/03 07:28:33;;;;;;;18.23;2.55;;;11.10;99.90;;;;;;4938903;28;20062;-92
2022/10/03 07:31:09;;;;;;;18.92;2.85;;;11.20;99.90;;;;;;4954083;28;20499;-93
2022/10/03 07:33:58;;;;;;;22.23;2.78;;;11.50;99.90;;;;;;4954959;28;20050;-92
2022/10/03 07:39:34;;;;;;;21.88;2.30;;;11.70;99.90;;;;;;4970986;28;20098;-93
2022/10/03 07:42:29;;;;;;;20.00;2.65;;;11.70;99.90;;;;;;4954373;28;20055;-93
2022/10/03 07:45:39;;;;;;;12.13;2.42;;;11.90;99.90;;;;;;4938604;28;20061;-93
2022/10/03 07:48:12;;;;;;;19.08;3.13;;;12.10;99.90;;;;;;4938955;28;20121;-93
2022/10/03 07:50:50;;;;;;;13.27;2.13;;;12.20;99.90;;;;;;4954942;28;20090;-93
2022/10/03 07:53:42;;;;;;;14.32;2.42;;;12.40;99.90;;;;;;4956032;28;20086;-95
2022/10/03 07:56:38;;;;;;;9.95;1.77;;;12.50;99.90;;;;;;4954886;28;20058;-93
2022/10/03 07:59:39;;;;;;;18.88;2.65;;;12.60;99.90;;;;;;4939627;28;20042;-93
2022/10/03 08:02:33;;;;;;;23.38;3.53;;;12.70;99.90;;;;;;4938689;28;20050;-93
2022/10/03 08:05:21;;;;;;;11.02;2.38;;;12.80;99.90;;;;;;4953188;28;20397;-93
2022/10/03 08:08:07;;;;;;;14.65;2.17;;;12.90;99.90;;;;;;4953745;28;20085;-93
2022/10/03 08:11:01;;;;;;;22.30;2.83;;;13.00;99.90;;;;;;4954537;28;20509;-93
2022/10/03 08:13:42;;;;;;;16.75;2.25;;;13.10;99.90;;;;;;4953601;28;20411;-93
2022/10/03 08:16:23;;;;;;;14.98;2.20;;;13.20;99.90;;;;;;4954067;28;20062;-93
2022/10/03 08:19:09;;;;;;;19.55;2.55;;;13.30;99.90;;;;;;4953754;28;20138;-92
2022/10/03 08:21:59;;;;;;;18.75;2.55;;;13.40;99.90;;;;;;4953695;28;20045;-92
2022/10/03 08:24:55;;;;;;;17.48;2.10;;;13.50;99.90;;;;;;4954033;28;20208;-92
2022/10/03 08:27:25;;;;;;;14.55;2.10;;;13.60;99.90;;;;;;4937424;28;20083;-92
2022/10/03 08:30:02;;;;;;;15.40;2.60;;;13.70;99.90;;;;;;4953644;28;20054;-93
2022/10/03 08:32:45;;;;;;;13.95;1.85;;;13.80;99.90;;;;;;4937538;28;20047;-92
2022/10/03 08:35:34;;;;;;;15.95;2.20;;;14.00;99.90;;;;;;4952698;28;20517;-93
2022/10/03 08:38:32;;;;;;;12.43;1.80;;;13.90;99.90;;;;;;4954012;28;20118;-92
2022/10/03 08:41:05;;;;;;;11.48;1.92;;;14.00;99.90;;;;;;4952921;28;20050;-92
2022/10/03 08:43:37;;;;;;;16.10;1.80;;;14.10;99.90;;;;;;4953948;28;20054;-93
2022/10/03 08:46:32;;;;;;;13.77;1.58;;;14.10;99.90;;;;;;4937356;28;20488;-91
2022/10/03 08:48:59;;;;;;;10.75;1.40;;;14.20;99.90;;;;;;4953380;28;20304;-93
2022/10/03 08:51:34;;;;;;;10.45;1.83;;;14.30;99.90;;;;;;4956067;28;20042;-93
2022/10/03 08:54:14;;;;;;;11.60;1.63;;;14.30;99.90;;;;;;4956377;28;20050;-93
2022/10/03 08:56:55;;;;;;;11.35;1.70;;;14.50;99.90;;;;;;4956631;28;20043;-93
2022/10/03 08:59:49;;;;;;;13.00;1.48;;;14.50;99.90;;;;;;4955947;28;20061;-88
2022/10/03 09:02:28;;;;;;;15.73;1.90;;;14.60;99.90;;;;;;4953930;28;20137;-86
2022/10/03 09:05:15;;;;;;;11.77;1.30;;;14.60;99.90;;;;;;4969262;28;20149;-86
2022/10/03 09:08:06;;;;;;;13.07;1.30;;;14.70;99.90;;;;;;4953721;28;20057;-85
2022/10/03 09:10:37;;;;;;;12.07;1.50;;;14.70;99.90;;;;;;4955334;28;20042;-86
2022/10/03 09:13:25;;;;;;;11.60;1.50;;;14.80;99.90;;;;;;4969963;28;20054;-91
2022/10/03 09:16:15;;;;;;;18.88;2.20;;;14.80;99.90;;;;;;4953290;28;20414;-84
2022/10/03 09:18:41;;;;;;;11.23;1.42;;;14.90;99.90;;;;;;4956231;28;20433;-83
2022/10/03 09:21:40;;;;;;;8.10;1.13;;;15.00;99.90;;;;;;4973395;28;20537;-84
2022/10/03 09:24:23;;;;;;;11.88;1.40;;;15.00;99.90;;;;;;4958542;28;20050;-85
2022/10/03 09:27:08;;;;;;;;;;;15.10;99.90;;;;;;4955141;28;20043;-85
2022/10/03 09:29:39;;;;;;;15.23;2.00;;;15.10;99.90;;;;;;4939175;28;19933;-84
2022/10/03 09:32:23;;;;;;;6.47;1.50;;;15.10;99.90;;;;;;4954639;28;20050;-85
2022/10/03 09:35:13;;;;;;;18.27;1.88;;;15.10;99.90;;;;;;4937985;28;20057;-84
2022/10/03 09:38:17;;;;;;;13.45;1.52;;;15.10;99.90;;;;;;4954582;28;20046;-85
2022/10/03 09:41:04;;;;;;;12.70;1.30;;;15.20;99.90;;;;;;4954320;28;20077;-84
2022/10/03 09:43:40;;;;;;;7.95;1.80;;;15.30;99.90;;;;;;4938402;28;20043;-84
2022/10/03 09:46:25;;;;;;;10.43;1.17;;;15.40;99.90;;;;;;4946017;28;20126;-85
2022/10/03 09:49:14;;;;;;;10.55;1.45;;;15.40;99.90;;;;;;4959114;28;20639;-92
2022/10/03 09:51:41;;;;;;;11.18;1.17;;;15.40;99.90;;;;;;4960048;28;20390;-89
2022/10/03 09:54:42;;;;;;;7.93;1.48;;;15.40;99.90;;;;;;4958613;28;20054;-89
2022/10/03 09:57:31;;;;;;;12.27;1.67;;;15.40;99.90;;;;;;4957129;28;20046;-87
2022/10/03 10:00:02;;;;;;;6.57;1.38;;;15.50;99.90;;;;;;4973305;28;20441;-85
2022/10/03 10:02:53;;;;;;;10.30;1.48;;;15.60;99.90;;;;;;4957364;28;20042;-88
2022/10/03 10:05:33;;;;;;;11.32;1.50;;;15.60;99.90;;;;;;4956288;28;20048;-87
2022/10/03 10:08:19;;;;;;;11.52;1.63;;;15.60;99.90;;;;;;4954545;28;20424;-85
2022/10/03 10:10:56;;;;;;;9.30;1.50;;;15.60;99.90;;;;;;4971481;28;20034;-86
2022/10/03 10:13:50;;;;;;;7.10;0.95;;;15.60;99.90;;;;;;4951239;28;20055;-87
2022/10/03 10:16:20;;;;;;;;;;;15.60;99.90;;;;;;4965415;28;20472;-85
2022/10/03 10:19:17;;;;;;;13.40;1.30;;;15.70;99.90;;;;;;4953684;28;19933;-86
2022/10/03 10:21:44;;;;;;;11.13;1.63;;;15.70;99.90;;;;;;4937302;28;20074;-86
2022/10/03 10:24:37;;;;;;;8.27;1.77;;;15.80;99.90;;;;;;4938048;28;20512;-86
2022/10/03 10:27:26;;;;;;;12.48;1.73;;;15.80;99.90;;;;;;4938043;28;20046;-87
2022/10/03 10:30:11;;;;;;;11.38;1.50;;;15.90;99.90;;;;;;4937819;28;20470;-88
2022/10/03 10:32:53;;;;;;;10.65;1.33;;;16.00;99.90;;;;;;4937482;28;20266;-87
2022/10/03 10:35:50;;;;;;;12.50;1.25;;;16.10;99.90;;;;;;4940612;28;20043;-85
2022/10/03 10:38:25;;;;;;;9.27;1.40;;;16.20;99.90;;;;;;4952924;28;20053;-85
2022/10/03 10:41:23;;;;;;;12.60;1.33;;;16.30;99.90;;;;;;4953016;28;20530;-85
2022/10/03 10:44:07;;;;;;;9.27;1.30;;;16.30;99.90;;;;;;4953519;28;20058;-85
2022/10/03 10:46:58;;;;;;;11.18;1.42;;;16.40;99.90;;;;;;4953314;28;20054;-86
2022/10/03 10:49:39;;;;;;;11.23;1.35;;;16.40;99.90;;;;;;4953280;28;20078;-86
2022/10/03 10:52:38;;;;;;;6.53;0.95;;;16.50;99.90;;;;;;4952829;28;20046;-85
2022/10/03 10:55:25;;;;;;;7.13;0.80;;;16.50;99.90;;;;;;4937022;28;20662;-86
2022/10/03 10:57:56;;;;;;;7.57;1.00;;;16.50;99.90;;;;;;4937147;28;20109;-86
2022/10/03 11:00:27;;;;;;;9.73;1.23;;;16.50;99.90;;;;;;4935858;28;20065;-85
2022/10/03 11:03:27;;;;;;;7.88;1.63;;;16.50;99.90;;;;;;4937121;28;20142;-85
2022/10/03 11:07:02;;;;;;;;;;;;;;;;;;;;;
2022/10/03 11:10:14;;;;;;;7.43;1.20;;;17.00;99.90;;;;;;4971842;28;20053;-90
2022/10/03 11:13:45;;;;;;;;;;;;;;;;;;;;;
2022/10/03 11:22:58;;;;;;;8.48;1.27;;;16.70;99.90;;;;;;4989885;28;20061;-91
2022/10/03 11:25:49;;;;;;;7.80;1.20;;;16.70;99.90;;;;;;4973567;28;20049;-93
2022/10/03 11:28:53;;;;;;;11.13;1.60;;;16.80;99.90;;;;;;4957798;28;20063;-92
2022/10/03 11:31:36;;;;;;;8.43;1.30;;;16.80;99.90;;;;;;4957779;28;20133;-92
2022/10/03 11:34:21;;;;;;;9.85;1.35;;;16.90;99.90;;;;;;4958028;28;20116;-92
2022/10/03 11:37:05;;;;;;;8.57;1.77;;;16.80;99.90;;;;;;4953876;28;20042;-92
2022/10/03 11:39:40;;;;;;;9.57;1.00;;;16.80;99.90;;;;;;4955094;28;20050;-93
2022/10/03 11:42:20;;;;;;;11.05;1.60;;;16.70;99.90;;;;;;4937896;28;20463;-92
2022/10/03 11:44:52;;;;;;;7.95;0.98;;;16.70;99.90;;;;;;4970513;28;20038;-92
2022/10/03 11:47:24;;;;;;;6.25;0.95;;;16.60;99.90;;;;;;4938936;28;20066;-92
2022/10/03 11:50:03;;;;;;;6.20;1.10;;;16.60;99.90;;;;;;4937560;28;20141;-92
2022/10/03 11:52:55;;;;;;;6.00;0.90;;;16.60;99.90;;;;;;4938539;28;20050;-92
2022/10/03 11:55:41;;;;;;;9.27;1.25;;;16.60;99.90;;;;;;4938486;28;20057;-92
2022/10/03 11:58:22;;;;;;;6.00;1.08;;;16.60;99.90;;;;;;4938153;28;20078;-92
2022/10/03 12:01:03;;;;;;;10.02;1.60;;;16.60;99.90;;;;;;4938022;28;20049;-92
2022/10/03 12:03:35;;;;;;;9.88;1.75;;;16.60;99.90;;;;;;4938109;28;20058;-92
2022/10/03 12:09:16;;;;;;;7.78;1.20;;;16.70;99.90;;;;;;4954173;28;20054;-92
2022/10/03 12:11:55;;;;;;;7.78;1.00;;;16.70;99.90;;;;;;4943908;28;20046;-92
2022/10/03 12:14:28;;;;;;;10.55;1.65;;;16.70;99.90;;;;;;4948037;28;20069;-93
2022/10/03 12:17:01;;;;;;;7.53;1.33;;;16.70;99.90;;;;;;4948879;28;20038;-92
2022/10/03 12:19:38;;;;;;;9.85;1.17;;;16.80;99.90;;;;;;4946241;28;20046;-93
2022/10/03 12:22:23;;;;;;;9.13;1.23;;;16.80;99.90;;;;;;4960683;28;20062;-93
2022/10/03 12:24:49;;;;;;;4.78;0.82;;;16.80;99.90;;;;;;4963958;28;20086;-90
2022/10/03 12:27:41;;;;;;;6.18;1.02;;;16.80;99.90;;;;;;4945984;28;20132;-90
2022/10/03 12:30:17;;;;;;;9.20;1.25;;;16.80;99.90;;;;;;4965543;28;20050;-91
2022/10/03 12:32:53;;;;;;;7.65;0.95;;;16.80;99.90;;;;;;4946608;28;20133;-91
2022/10/03 12:35:49;;;;;;;8.43;1.10;;;16.90;99.90;;;;;;4961445;28;20287;-90
2022/10/03 12:38:35;;;;;;;8.77;1.35;;;16.90;99.90;;;;;;4963847;28;20153;-91
2022/10/03 12:41:17;;;;;;;5.35;0.95;;;16.90;99.90;;;;;;4945826;28;20510;-92
2022/10/03 12:44:12;;;;;;;8.10;1.10;;;16.90;99.90;;;;;;4961094;28;20476;-91
2022/10/03 12:46:48;;;;;;;6.20;0.93;;;16.90;99.90;;;;;;4947096;28;20097;-93
2022/10/03 12:49:34;;;;;;;10.82;1.30;;;17.00;99.90;;;;;;4957245;28;20054;-91
2022/10/03 12:52:08;;;;;;;7.72;1.42;;;17.10;99.90;;;;;;4957957;28;20038;-92
2022/10/03 12:54:48;;;;;;;9.85;1.27;;;17.10;99.90;;;;;;4956384;28;20053;-92
2022/10/03 12:57:32;;;;;;;5.18;0.85;;;17.20;99.90;;;;;;4956673;28;20074;-92
2022/10/03 13:00:13;;;;;;;5.30;0.80;;;17.30;99.90;;;;;;4956203;28;20050;-91
2022/10/03 13:02:47;;;;;;;7.28;0.98;;;17.40;99.90;;;;;;4972480;28;20061;-91
2022/10/03 13:05:26;;;;;;;9.20;1.10;;;17.50;99.90;;;;;;4956217;28;20073;-91
2022/10/03 13:07:55;;;;;;;6.10;1.02;;;17.60;99.90;;;;;;4956131;28;20077;-92
2022/10/03 13:10:34;;;;;;;4.22;0.73;;;17.70;99.90;;;;;;4956426;28;20061;-92
2022/10/03 13:13:05;;;;;;;11.82;1.48;;;17.70;99.90;;;;;;4956233;28;20522;-92
2022/10/03 13:15:48;;;;;;;7.15;1.20;;;17.80;99.90;;;;;;4956190;28;20435;-92
2022/10/03 13:18:34;;;;;;;6.80;0.90;;;17.70;99.90;;;;;;4956324;28;20113;-93
2022/10/03 13:21:09;;;;;;;10.18;0.90;;;17.70;99.90;;;;;;4955165;28;20489;-92
2022/10/03 13:23:46;;;;;;;6.32;1.15;;;17.60;99.90;;;;;;4956595;28;20054;-92
2022/10/03 13:26:21;;;;;;;8.65;1.13;;;17.60;99.90;;;;;;4956482;28;20133;-92
2022/10/03 13:29:00;;;;;;;6.80;0.95;;;17.50;99.90;;;;;;4955629;28;20042;-92
2022/10/03 13:31:31;;;;;;;3.78;0.70;;;17.50;99.90;;;;;;4956372;28;20090;-92
2022/10/03 13:34:10;;;;;;;7.25;1.10;;;17.50;99.90;;;;;;4956484;28;20050;-92
2022/10/03 13:36:46;;;;;;;6.15;1.20;;;17.50;99.90;;;;;;4955042;28;20046;-92
2022/10/03 13:39:24;;;;;;;6.10;0.82;;;17.40;99.90;;;;;;4937002;28;20354;-92
2022/10/03 13:41:54;;;;;;;5.68;1.00;;;17.40;99.90;;;;;;4936217;28;20067;-92
2022/10/03 13:44:27;;;;;;;7.55;1.08;;;17.30;99.90;;;;;;4937016;28;20051;-91
2022/10/03 13:47:01;;;;;;;8.05;1.00;;;17.40;99.90;;;;;;4936774;28;20038;-91
2022/10/03 13:49:34;;;;;;;6.70;1.35;;;17.30;99.90;;;;;;4937032;28;20053;-91
2022/10/03 13:52:21;;;;;;;8.35;1.33;;;17.30;99.90;;;;;;4936729;28;20049;-91
2022/10/03 13:55:16;;;;;;;4.38;0.80;;;17.40;99.90;;;;;;4936725;28;20043;-92
2022/10/03 13:57:55;;;;;;;8.90;1.10;;;17.40;99.90;;;;;;4945096;28;20055;-92
2022/10/03 14:00:25;;;;;;;5.72;0.90;;;17.40;99.90;;;;;;4953668;28;20225;-92
2022/10/03 14:03:01;;;;;;;4.63;1.00;;;17.40;99.90;;;;;;4936593;28;20054;-92
2022/10/03 14:05:48;;;;;;;5.43;0.95;;;17.40;99.90;;;;;;4939114;28;20049;-93
2022/10/03 14:08:27;;;;;;;8.60;1.20;;;17.30;99.90;;;;;;4939559;28;20040;-85
2022/10/03 14:11:00;;;;;;;6.38;1.20;;;17.30;99.90;;;;;;4937689;28;20043;-83
2022/10/03 14:13:42;;;;;;;9.07;1.25;;;17.30;99.90;;;;;;4957574;28;20136;-91
2022/10/03 14:16:29;;;;;;;5.88;1.00;;;17.20;99.90;;;;;;4940663;28;20055;-92
2022/10/03 14:18:55;;;;;;;10.02;1.38;;;17.20;99.90;;;;;;4940472;28;20046;-91
2022/10/03 14:21:45;;;;;;;9.23;1.30;;;17.10;99.90;;;;;;4939709;28;20047;-93
2022/10/03 14:24:19;;;;;;;4.38;1.20;;;17.00;99.90;;;;;;4940250;28;20051;-92